sensor_id;sensor_type;location;lat;lon;timestamp;P1;durP1;ratioP1;P2;durP2;ratioP2
60233;SDS011;49514;43.538;-5.708;2023-04-25T00:02:23;9.77;;;4.00;;
60233;SDS011;49514;43.538;-5.708;2023-04-25T00:04:50;10.25;;;4.00;;
60233;SDS011;49514;43.538;-5.708;2023-04-25T00:07:17;10.43;;;4.72;;
60233;SDS011;49514;43.538;-5.708;2023-04-25T00:09:45;12.17;;;4.97;;
60233;SDS011;49514;43.538;-5.708;2023-04-25T00:12:11;16.90;;;6.50;;
60233;SDS011;49514;43.538;-5.708;2023-04-25T00:14:38;14.50;;;6.67;;
60233;SDS011;49514;43.538;-5.708;2023-04-25T00:17:04;16.75;;;6.50;;
60233;SDS011;49514;43.538;-5.708;2023-04-25T00:19:31;12.77;;;6.60;;
60233;SDS011;49514;43.538;-5.708;2023-04-25T00:21:58;12.03;;;6.37;;
60233;SDS011;49514;43.538;-5.708;2023-04-25T00:24:25;14.32;;;7.30;;
60233;SDS011;49514;43.538;-5.708;2023-04-25T00:26:51;13.60;;;6.93;;
60233;SDS011;49514;43.538;-5.708;2023-04-25T00:29:18;16.83;;;7.20;;
60233;SDS011;49514;43.538;-5.708;2023-04-25T00:31:44;10.90;;;5.70;;
60233;SDS011;49514;43.538;-5.708;2023-04-25T00:34:11;10.82;;;5.82;;
60233;SDS011;49514;43.538;-5.708;2023-04-25T00:36:38;10.98;;;5.85;;
60233;SDS011;49514;43.538;-5.708;2023-04-25T00:39:04;12.20;;;6.05;;
60233;SDS011;49514;43.538;-5.708;2023-04-25T00:41:32;12.18;;;6.80;;
60233;SDS011;49514;43.538;-5.708;2023-04-25T00:43:59;10.43;;;5.80;;
60233;SDS011;49514;43.538;-5.708;2023-04-25T00:46:26;11.57;;;6.07;;
60233;SDS011;49514;43.538;-5.708;2023-04-25T00:48:53;10.98;;;6.20;;
60233;SDS011;49514;43.538;-5.708;2023-04-25T00:51:20;15.23;;;6.80;;
60233;SDS011;49514;43.538;-5.708;2023-04-25T00:53:48;11.70;;;6.07;;
60233;SDS011;49514;43.538;-5.708;2023-04-25T00:56:16;10.68;;;5.72;;
60233;SDS011;49514;43.538;-5.708;2023-04-25T00:58:43;11.20;;;5.70;;
60233;SDS011;49514;43.538;-5.708;2023-04-25T01:01:10;11.60;;;5.68;;
60233;SDS011;49514;43.538;-5.708;2023-04-25T01:03:38;9.93;;;5.30;;
60233;SDS011;49514;43.538;-5.708;2023-04-25T01:06:09;11.87;;;5.70;;
60233;SDS011;49514;43.538;-5.708;2023-04-25T01:08:37;12.43;;;6.40;;
60233;SDS011;49514;43.538;-5.708;2023-04-25T01:11:05;12.45;;;6.10;;
60233;SDS011;49514;43.538;-5.708;2023-04-25T01:13:32;14.27;;;5.70;;
60233;SDS011;49514;43.538;-5.708;2023-04-25T01:16:00;11.70;;;6.53;;
60233;SDS011;49514;43.538;-5.708;2023-04-25T01:18:28;10.33;;;6.10;;
60233;SDS011;49514;43.538;-5.708;2023-04-25T01:20:54;11.68;;;5.90;;
60233;SDS011;49514;43.538;-5.708;2023-04-25T01:23:21;12.38;;;5.50;;
60233;SDS011;49514;43.538;-5.708;2023-04-25T01:25:49;11.75;;;5.40;;
60233;SDS011;49514;43.538;-5.708;2023-04-25T01:28:16;13.02;;;5.45;;
60233;SDS011;49514;43.538;-5.708;2023-04-25T01:30:43;15.27;;;5.38;;
60233;SDS011;49514;43.538;-5.708;2023-04-25T01:33:11;11.02;;;5.50;;
60233;SDS011;49514;43.538;-5.708;2023-04-25T01:35:41;15.07;;;5.40;;
60233;SDS011;49514;43.538;-5.708;2023-04-25T01:38:08;11.23;;;5.35;;
60233;SDS011;49514;43.538;-5.708;2023-04-25T01:40:34;11.35;;;5.40;;
60233;SDS011;49514;43.538;-5.708;2023-04-25T01:43:04;10.60;;;5.15;;
60233;SDS011;49514;43.538;-5.708;2023-04-25T01:45:32;12.15;;;5.32;;
60233;SDS011;49514;43.538;-5.708;2023-04-25T01:47:59;10.90;;;5.35;;
60233;SDS011;49514;43.538;-5.708;2023-04-25T01:50:25;11.77;;;5.30;;
60233;SDS011;49514;43.538;-5.708;2023-04-25T01:52:52;13.13;;;5.43;;
60233;SDS011;49514;43.538;-5.708;2023-04-25T01:55:20;11.82;;;5.40;;
60233;SDS011;49514;43.538;-5.708;2023-04-25T01:57:57;12.17;;;5.20;;
60233;SDS011;49514;43.538;-5.708;2023-04-25T02:00:38;11.85;;;5.45;;
60233;SDS011;49514;43.538;-5.708;2023-04-25T02:03:06;9.98;;;5.32;;
60233;SDS011;49514;43.538;-5.708;2023-04-25T02:05:35;11.40;;;5.60;;
60233;SDS011;49514;43.538;-5.708;2023-04-25T02:08:04;12.27;;;5.70;;
60233;SDS011;49514;43.538;-5.708;2023-04-25T02:10:33;9.32;;;5.00;;
60233;SDS011;49514;43.538;-5.708;2023-04-25T02:13:19;10.40;;;5.17;;
60233;SDS011;49514;43.538;-5.708;2023-04-25T02:16:02;10.93;;;5.20;;
60233;SDS011;49514;43.538;-5.708;2023-04-25T02:18:29;10.57;;;5.40;;
60233;SDS011;49514;43.538;-5.708;2023-04-25T02:20:58;13.13;;;5.53;;
60233;SDS011;49514;43.538;-5.708;2023-04-25T02:23:25;11.20;;;5.32;;
60233;SDS011;49514;43.538;-5.708;2023-04-25T02:25:52;13.15;;;5.50;;
60233;SDS011;49514;43.538;-5.708;2023-04-25T02:28:21;12.02;;;5.78;;
60233;SDS011;49514;43.538;-5.708;2023-04-25T02:30:47;10.82;;;5.22;;
60233;SDS011;49514;43.538;-5.708;2023-04-25T02:33:14;10.60;;;5.38;;
60233;SDS011;49514;43.538;-5.708;2023-04-25T02:35:42;10.50;;;5.57;;
60233;SDS011;49514;43.538;-5.708;2023-04-25T02:38:09;9.73;;;5.15;;
60233;SDS011;49514;43.538;-5.708;2023-04-25T02:40:35;12.90;;;5.90;;
60233;SDS011;49514;43.538;-5.708;2023-04-25T02:43:02;11.73;;;5.85;;
60233;SDS011;49514;43.538;-5.708;2023-04-25T02:45:29;10.50;;;5.93;;
60233;SDS011;49514;43.538;-5.708;2023-04-25T02:47:55;11.60;;;6.07;;
60233;SDS011;49514;43.538;-5.708;2023-04-25T02:50:22;10.10;;;5.68;;
60233;SDS011;49514;43.538;-5.708;2023-04-25T02:52:49;11.57;;;5.47;;
60233;SDS011;49514;43.538;-5.708;2023-04-25T02:55:20;10.90;;;5.90;;
60233;SDS011;49514;43.538;-5.708;2023-04-25T02:57:48;11.13;;;5.43;;
60233;SDS011;49514;43.538;-5.708;2023-04-25T03:00:24;10.18;;;5.93;;
60233;SDS011;49514;43.538;-5.708;2023-04-25T03:02:50;9.38;;;5.68;;
60233;SDS011;49514;43.538;-5.708;2023-04-25T03:05:17;14.20;;;6.70;;
60233;SDS011;49514;43.538;-5.708;2023-04-25T03:07:44;14.83;;;7.40;;
60233;SDS011;49514;43.538;-5.708;2023-04-25T03:10:11;13.02;;;6.28;;
60233;SDS011;49514;43.538;-5.708;2023-04-25T03:12:38;12.52;;;6.65;;
60233;SDS011;49514;43.538;-5.708;2023-04-25T03:15:05;13.33;;;6.40;;
60233;SDS011;49514;43.538;-5.708;2023-04-25T03:17:32;12.27;;;6.23;;
60233;SDS011;49514;43.538;-5.708;2023-04-25T03:19:59;9.57;;;5.70;;
60233;SDS011;49514;43.538;-5.708;2023-04-25T03:22:25;13.82;;;6.25;;
60233;SDS011;49514;43.538;-5.708;2023-04-25T03:24:52;14.40;;;6.50;;
60233;SDS011;49514;43.538;-5.708;2023-04-25T03:27:19;12.57;;;6.05;;
60233;SDS011;49514;43.538;-5.708;2023-04-25T03:29:46;11.25;;;6.07;;
60233;SDS011;49514;43.538;-5.708;2023-04-25T03:32:13;12.93;;;6.00;;
60233;SDS011;49514;43.538;-5.708;2023-04-25T03:34:40;12.80;;;6.53;;
60233;SDS011;49514;43.538;-5.708;2023-04-25T03:37:06;13.27;;;6.55;;
60233;SDS011;49514;43.538;-5.708;2023-04-25T03:39:37;12.95;;;6.60;;
60233;SDS011;49514;43.538;-5.708;2023-04-25T03:42:04;12.30;;;6.10;;
60233;SDS011;49514;43.538;-5.708;2023-04-25T03:44:31;12.77;;;5.97;;
60233;SDS011;49514;43.538;-5.708;2023-04-25T03:46:58;13.85;;;6.40;;
60233;SDS011;49514;43.538;-5.708;2023-04-25T03:49:25;15.55;;;6.45;;
60233;SDS011;49514;43.538;-5.708;2023-04-25T03:51:57;15.20;;;6.72;;
60233;SDS011;49514;43.538;-5.708;2023-04-25T03:54:24;12.05;;;5.95;;
60233;SDS011;49514;43.538;-5.708;2023-04-25T03:56:58;14.45;;;5.38;;
60233;SDS011;49514;43.538;-5.708;2023-04-25T03:59:27;12.70;;;5.30;;
60233;SDS011;49514;43.538;-5.708;2023-04-25T04:01:54;10.60;;;5.45;;
60233;SDS011;49514;43.538;-5.708;2023-04-25T04:04:21;11.57;;;5.50;;
60233;SDS011;49514;43.538;-5.708;2023-04-25T04:06:48;18.80;;;5.90;;
60233;SDS011;49514;43.538;-5.708;2023-04-25T04:09:23;15.25;;;5.90;;
60233;SDS011;49514;43.538;-5.708;2023-04-25T04:11:50;15.63;;;5.87;;
60233;SDS011;49514;43.538;-5.708;2023-04-25T04:14:16;12.77;;;5.30;;
60233;SDS011;49514;43.538;-5.708;2023-04-25T04:16:45;13.90;;;5.40;;
60233;SDS011;49514;43.538;-5.708;2023-04-25T04:19:12;12.65;;;5.60;;
60233;SDS011;49514;43.538;-5.708;2023-04-25T04:21:43;17.20;;;5.50;;
60233;SDS011;49514;43.538;-5.708;2023-04-25T04:24:10;13.48;;;5.70;;
60233;SDS011;49514;43.538;-5.708;2023-04-25T04:26:51;18.30;;;5.40;;
60233;SDS011;49514;43.538;-5.708;2023-04-25T04:29:44;15.95;;;5.63;;
60233;SDS011;49514;43.538;-5.708;2023-04-25T04:32:15;18.65;;;5.80;;
60233;SDS011;49514;43.538;-5.708;2023-04-25T04:34:44;16.33;;;5.75;;
60233;SDS011;49514;43.538;-5.708;2023-04-25T04:37:14;14.75;;;5.75;;
60233;SDS011;49514;43.538;-5.708;2023-04-25T04:39:41;16.50;;;5.78;;
60233;SDS011;49514;43.538;-5.708;2023-04-25T04:42:33;12.35;;;5.13;;
60233;SDS011;49514;43.538;-5.708;2023-04-25T04:45:12;13.13;;;5.18;;
60233;SDS011;49514;43.538;-5.708;2023-04-25T04:47:48;10.43;;;4.90;;
60233;SDS011;49514;43.538;-5.708;2023-04-25T04:50:24;10.15;;;4.88;;
60233;SDS011;49514;43.538;-5.708;2023-04-25T04:53:16;9.93;;;4.80;;
60233;SDS011;49514;43.538;-5.708;2023-04-25T04:56:06;14.98;;;5.18;;
60233;SDS011;49514;43.538;-5.708;2023-04-25T04:58:48;15.38;;;5.47;;
60233;SDS011;49514;43.538;-5.708;2023-04-25T05:01:33;21.77;;;6.47;;
60233;SDS011;49514;43.538;-5.708;2023-04-25T05:04:07;17.93;;;5.50;;
60233;SDS011;49514;43.538;-5.708;2023-04-25T05:06:45;17.08;;;5.40;;
60233;SDS011;49514;43.538;-5.708;2023-04-25T05:09:23;12.30;;;4.78;;
60233;SDS011;49514;43.538;-5.708;2023-04-25T05:12:08;15.90;;;5.20;;
60233;SDS011;49514;43.538;-5.708;2023-04-25T05:14:57;13.90;;;5.15;;
60233;SDS011;49514;43.538;-5.708;2023-04-25T05:17:42;11.15;;;4.65;;
60233;SDS011;49514;43.538;-5.708;2023-04-25T05:20:27;13.20;;;5.10;;
60233;SDS011;49514;43.538;-5.708;2023-04-25T05:22:54;17.63;;;5.28;;
60233;SDS011;49514;43.538;-5.708;2023-04-25T05:25:34;24.33;;;6.78;;
60233;SDS011;49514;43.538;-5.708;2023-04-25T05:28:17;25.85;;;6.72;;
60233;SDS011;49514;43.538;-5.708;2023-04-25T05:30:44;16.55;;;6.13;;
60233;SDS011;49514;43.538;-5.708;2023-04-25T05:33:16;15.45;;;6.10;;
60233;SDS011;49514;43.538;-5.708;2023-04-25T05:35:44;19.60;;;6.18;;
60233;SDS011;49514;43.538;-5.708;2023-04-25T05:38:11;19.58;;;6.30;;
60233;SDS011;49514;43.538;-5.708;2023-04-25T05:41:00;18.48;;;6.00;;
60233;SDS011;49514;43.538;-5.708;2023-04-25T05:43:47;15.70;;;6.13;;
60233;SDS011;49514;43.538;-5.708;2023-04-25T05:46:41;22.92;;;6.60;;
60233;SDS011;49514;43.538;-5.708;2023-04-25T05:49:21;16.40;;;6.65;;
60233;SDS011;49514;43.538;-5.708;2023-04-25T05:52:13;25.15;;;6.13;;
60233;SDS011;49514;43.538;-5.708;2023-04-25T06:56:42;32.75;;;7.70;;
60233;SDS011;49514;43.538;-5.708;2023-04-25T06:59:13;34.80;;;8.02;;
60233;SDS011;49514;43.538;-5.708;2023-04-25T07:01:42;23.80;;;8.05;;
60233;SDS011;49514;43.538;-5.708;2023-04-25T07:04:16;22.07;;;8.50;;
60233;SDS011;49514;43.538;-5.708;2023-04-25T07:06:50;28.23;;;8.48;;
60233;SDS011;49514;43.538;-5.708;2023-04-25T07:09:21;16.30;;;7.40;;
60233;SDS011;49514;43.538;-5.708;2023-04-25T07:11:49;24.02;;;7.63;;
60233;SDS011;49514;43.538;-5.708;2023-04-25T07:14:16;23.73;;;7.32;;
60233;SDS011;49514;43.538;-5.708;2023-04-25T07:16:43;16.00;;;6.38;;
60233;SDS011;49514;43.538;-5.708;2023-04-25T07:19:10;17.30;;;6.50;;
60233;SDS011;49514;43.538;-5.708;2023-04-25T07:21:37;21.85;;;6.50;;
60233;SDS011;49514;43.538;-5.708;2023-04-25T07:24:05;13.45;;;4.95;;
60233;SDS011;49514;43.538;-5.708;2023-04-25T07:26:35;9.07;;;4.00;;
60233;SDS011;49514;43.538;-5.708;2023-04-25T07:29:25;11.80;;;4.43;;
60233;SDS011;49514;43.538;-5.708;2023-04-25T07:31:51;13.60;;;4.20;;
60233;SDS011;49514;43.538;-5.708;2023-04-25T07:34:20;7.93;;;3.07;;
60233;SDS011;49514;43.538;-5.708;2023-04-25T07:36:46;10.52;;;3.78;;
60233;SDS011;49514;43.538;-5.708;2023-04-25T07:39:13;11.23;;;3.20;;
60233;SDS011;49514;43.538;-5.708;2023-04-25T07:41:40;5.95;;;2.80;;
60233;SDS011;49514;43.538;-5.708;2023-04-25T07:44:12;12.75;;;3.90;;
60233;SDS011;49514;43.538;-5.708;2023-04-25T07:46:39;5.53;;;2.90;;
60233;SDS011;49514;43.538;-5.708;2023-04-25T07:49:07;5.10;;;2.57;;
60233;SDS011;49514;43.538;-5.708;2023-04-25T07:51:34;8.27;;;3.20;;
60233;SDS011;49514;43.538;-5.708;2023-04-25T07:54:05;6.03;;;2.80;;
60233;SDS011;49514;43.538;-5.708;2023-04-25T07:56:35;7.82;;;2.83;;
60233;SDS011;49514;43.538;-5.708;2023-04-25T07:59:02;5.90;;;2.92;;
60233;SDS011;49514;43.538;-5.708;2023-04-25T08:01:29;6.60;;;2.80;;
60233;SDS011;49514;43.538;-5.708;2023-04-25T08:03:59;5.57;;;2.20;;
60233;SDS011;49514;43.538;-5.708;2023-04-25T08:06:44;6.35;;;2.53;;
60233;SDS011;49514;43.538;-5.708;2023-04-25T08:09:19;7.18;;;2.20;;
60233;SDS011;49514;43.538;-5.708;2023-04-25T08:11:47;4.40;;;2.28;;
60233;SDS011;49514;43.538;-5.708;2023-04-25T08:14:16;4.40;;;2.30;;
60233;SDS011;49514;43.538;-5.708;2023-04-25T08:16:44;5.47;;;2.33;;
60233;SDS011;49514;43.538;-5.708;2023-04-25T08:19:11;5.67;;;2.47;;
60233;SDS011;49514;43.538;-5.708;2023-04-25T08:21:38;5.90;;;2.05;;
60233;SDS011;49514;43.538;-5.708;2023-04-25T08:24:09;5.97;;;2.30;;
60233;SDS011;49514;43.538;-5.708;2023-04-25T08:26:38;6.87;;;2.70;;
60233;SDS011;49514;43.538;-5.708;2023-04-25T08:29:08;8.32;;;2.60;;
60233;SDS011;49514;43.538;-5.708;2023-04-25T08:31:38;6.95;;;2.67;;
60233;SDS011;49514;43.538;-5.708;2023-04-25T08:34:06;6.28;;;2.53;;
60233;SDS011;49514;43.538;-5.708;2023-04-25T08:36:38;6.03;;;2.25;;
60233;SDS011;49514;43.538;-5.708;2023-04-25T08:39:06;7.47;;;2.40;;
60233;SDS011;49514;43.538;-5.708;2023-04-25T08:41:40;6.15;;;2.33;;
60233;SDS011;49514;43.538;-5.708;2023-04-25T08:44:08;7.45;;;2.40;;
60233;SDS011;49514;43.538;-5.708;2023-04-25T08:46:38;4.53;;;2.00;;
60233;SDS011;49514;43.538;-5.708;2023-04-25T08:49:25;8.38;;;2.30;;
60233;SDS011;49514;43.538;-5.708;2023-04-25T08:51:52;6.47;;;2.00;;
60233;SDS011;49514;43.538;-5.708;2023-04-25T08:54:23;6.95;;;2.30;;
60233;SDS011;49514;43.538;-5.708;2023-04-25T08:56:54;5.63;;;2.10;;
60233;SDS011;49514;43.538;-5.708;2023-04-25T08:59:24;6.03;;;2.03;;
60233;SDS011;49514;43.538;-5.708;2023-04-25T09:01:51;8.57;;;2.70;;
60233;SDS011;49514;43.538;-5.708;2023-04-25T09:04:20;7.93;;;2.30;;
60233;SDS011;49514;43.538;-5.708;2023-04-25T09:06:47;9.30;;;3.50;;
60233;SDS011;49514;43.538;-5.708;2023-04-25T09:09:14;8.33;;;2.70;;
60233;SDS011;49514;43.538;-5.708;2023-04-25T09:11:41;8.18;;;2.72;;
60233;SDS011;49514;43.538;-5.708;2023-04-25T09:17:07;12.13;;;3.22;;
60233;SDS011;49514;43.538;-5.708;2023-04-25T09:19:52;9.70;;;3.10;;
60233;SDS011;49514;43.538;-5.708;2023-04-25T09:22:28;14.30;;;3.08;;
60233;SDS011;49514;43.538;-5.708;2023-04-25T09:24:56;8.88;;;3.17;;
60233;SDS011;49514;43.538;-5.708;2023-04-25T09:27:26;11.13;;;3.03;;
60233;SDS011;49514;43.538;-5.708;2023-04-25T09:30:02;8.93;;;2.97;;
60233;SDS011;49514;43.538;-5.708;2023-04-25T09:32:45;9.23;;;2.85;;
60233;SDS011;49514;43.538;-5.708;2023-04-25T09:35:11;9.27;;;3.03;;
60233;SDS011;49514;43.538;-5.708;2023-04-25T09:37:51;9.07;;;2.90;;
60233;SDS011;49514;43.538;-5.708;2023-04-25T09:40:45;8.70;;;2.70;;
60233;SDS011;49514;43.538;-5.708;2023-04-25T09:43:22;10.55;;;2.78;;
60233;SDS011;49514;43.538;-5.708;2023-04-25T09:45:52;9.93;;;2.60;;
60233;SDS011;49514;43.538;-5.708;2023-04-25T09:48:24;7.90;;;2.58;;
60233;SDS011;49514;43.538;-5.708;2023-04-25T09:53:37;11.48;;;2.75;;
60233;SDS011;49514;43.538;-5.708;2023-04-25T09:56:17;8.48;;;2.08;;
60233;SDS011;49514;43.538;-5.708;2023-04-25T09:58:48;9.53;;;2.47;;
60233;SDS011;49514;43.538;-5.708;2023-04-25T10:01:20;6.03;;;2.42;;
60233;SDS011;49514;43.538;-5.708;2023-04-25T10:04:10;8.93;;;2.35;;
60233;SDS011;49514;43.538;-5.708;2023-04-25T10:06:58;7.57;;;2.40;;
60233;SDS011;49514;43.538;-5.708;2023-04-25T10:09:25;8.18;;;2.40;;
60233;SDS011;49514;43.538;-5.708;2023-04-25T10:11:57;8.82;;;2.25;;
60233;SDS011;49514;43.538;-5.708;2023-04-25T10:14:24;10.35;;;2.72;;
60233;SDS011;49514;43.538;-5.708;2023-04-25T10:16:52;8.00;;;2.73;;
60233;SDS011;49514;43.538;-5.708;2023-04-25T10:19:20;9.95;;;2.85;;
60233;SDS011;49514;43.538;-5.708;2023-04-25T10:22:07;7.88;;;2.40;;
60233;SDS011;49514;43.538;-5.708;2023-04-25T21:23:28;10.25;;;4.85;;
60233;SDS011;49514;43.538;-5.708;2023-04-25T21:25:55;9.38;;;6.00;;
60233;SDS011;49514;43.538;-5.708;2023-04-25T21:28:22;8.90;;;5.32;;
60233;SDS011;49514;43.538;-5.708;2023-04-25T21:30:50;8.75;;;5.20;;
60233;SDS011;49514;43.538;-5.708;2023-04-25T21:33:17;8.37;;;4.33;;
60233;SDS011;49514;43.538;-5.708;2023-04-25T21:35:44;7.60;;;4.30;;
60233;SDS011;49514;43.538;-5.708;2023-04-25T21:38:11;6.70;;;4.38;;
60233;SDS011;49514;43.538;-5.708;2023-04-25T21:40:38;8.23;;;4.13;;
60233;SDS011;49514;43.538;-5.708;2023-04-25T21:43:05;7.22;;;4.75;;
60233;SDS011;49514;43.538;-5.708;2023-04-25T21:45:32;8.63;;;5.00;;
60233;SDS011;49514;43.538;-5.708;2023-04-25T21:47:59;9.10;;;6.05;;
60233;SDS011;49514;43.538;-5.708;2023-04-25T21:50:26;9.07;;;5.70;;
60233;SDS011;49514;43.538;-5.708;2023-04-25T21:52:54;10.43;;;6.20;;
60233;SDS011;49514;43.538;-5.708;2023-04-25T21:55:24;11.13;;;6.70;;
60233;SDS011;49514;43.538;-5.708;2023-04-25T21:57:52;9.88;;;6.15;;
60233;SDS011;49514;43.538;-5.708;2023-04-25T22:00:19;11.40;;;6.40;;
60233;SDS011;49514;43.538;-5.708;2023-04-25T22:02:49;8.95;;;5.57;;
60233;SDS011;49514;43.538;-5.708;2023-04-25T22:05:17;8.75;;;5.03;;
60233;SDS011;49514;43.538;-5.708;2023-04-25T22:07:51;10.70;;;5.80;;
60233;SDS011;49514;43.538;-5.708;2023-04-25T22:10:20;9.30;;;5.10;;
60233;SDS011;49514;43.538;-5.708;2023-04-25T22:12:47;10.15;;;6.28;;
60233;SDS011;49514;43.538;-5.708;2023-04-25T22:15:17;11.80;;;5.93;;
60233;SDS011;49514;43.538;-5.708;2023-04-25T22:17:44;10.13;;;5.70;;
60233;SDS011;49514;43.538;-5.708;2023-04-25T22:20:12;9.20;;;5.68;;
60233;SDS011;49514;43.538;-5.708;2023-04-25T22:22:39;9.95;;;5.75;;
60233;SDS011;49514;43.538;-5.708;2023-04-25T22:25:07;8.40;;;5.40;;
60233;SDS011;49514;43.538;-5.708;2023-04-25T22:27:34;9.73;;;5.85;;
60233;SDS011;49514;43.538;-5.708;2023-04-25T22:30:01;10.55;;;6.10;;
60233;SDS011;49514;43.538;-5.708;2023-04-25T22:32:28;9.02;;;5.38;;
60233;SDS011;49514;43.538;-5.708;2023-04-25T22:34:57;8.95;;;5.18;;
60233;SDS011;49514;43.538;-5.708;2023-04-25T22:37:23;9.45;;;6.00;;
60233;SDS011;49514;43.538;-5.708;2023-04-25T22:39:50;10.77;;;6.00;;
60233;SDS011;49514;43.538;-5.708;2023-04-25T22:42:17;9.47;;;5.70;;
60233;SDS011;49514;43.538;-5.708;2023-04-25T22:44:44;10.88;;;6.22;;
60233;SDS011;49514;43.538;-5.708;2023-04-25T22:47:11;14.57;;;6.47;;
60233;SDS011;49514;43.538;-5.708;2023-04-25T22:49:38;12.20;;;6.57;;
60233;SDS011;49514;43.538;-5.708;2023-04-25T22:52:05;9.70;;;5.88;;
60233;SDS011;49514;43.538;-5.708;2023-04-25T22:54:33;14.20;;;6.47;;
60233;SDS011;49514;43.538;-5.708;2023-04-25T22:57:00;11.23;;;5.87;;
60233;SDS011;49514;43.538;-5.708;2023-04-25T22:59:27;12.67;;;5.73;;
60233;SDS011;49514;43.538;-5.708;2023-04-25T23:01:54;12.90;;;5.90;;
60233;SDS011;49514;43.538;-5.708;2023-04-25T23:04:21;10.73;;;5.50;;
60233;SDS011;49514;43.538;-5.708;2023-04-25T23:06:49;15.77;;;7.10;;
60233;SDS011;49514;43.538;-5.708;2023-04-25T23:09:16;12.68;;;6.47;;
60233;SDS011;49514;43.538;-5.708;2023-04-25T23:11:42;16.25;;;6.15;;
60233;SDS011;49514;43.538;-5.708;2023-04-25T23:14:09;15.00;;;6.10;;
60233;SDS011;49514;43.538;-5.708;2023-04-25T23:16:35;20.67;;;6.95;;
60233;SDS011;49514;43.538;-5.708;2023-04-25T23:19:02;20.92;;;6.53;;
60233;SDS011;49514;43.538;-5.708;2023-04-25T23:21:29;18.77;;;6.30;;
60233;SDS011;49514;43.538;-5.708;2023-04-25T23:23:55;15.50;;;6.05;;
60233;SDS011;49514;43.538;-5.708;2023-04-25T23:26:22;14.18;;;5.68;;
60233;SDS011;49514;43.538;-5.708;2023-04-25T23:28:48;13.82;;;5.90;;
60233;SDS011;49514;43.538;-5.708;2023-04-25T23:31:15;11.50;;;5.70;;
60233;SDS011;49514;43.538;-5.708;2023-04-25T23:33:42;16.33;;;5.53;;
60233;SDS011;49514;43.538;-5.708;2023-04-25T23:36:15;13.13;;;5.20;;
60233;SDS011;49514;43.538;-5.708;2023-04-25T23:38:44;13.82;;;5.72;;
60233;SDS011;49514;43.538;-5.708;2023-04-25T23:41:11;10.73;;;5.20;;
60233;SDS011;49514;43.538;-5.708;2023-04-25T23:43:38;9.02;;;4.75;;
60233;SDS011;49514;43.538;-5.708;2023-04-25T23:46:05;9.80;;;5.05;;
60233;SDS011;49514;43.538;-5.708;2023-04-25T23:48:32;12.15;;;5.43;;
60233;SDS011;49514;43.538;-5.708;2023-04-25T23:50:58;10.17;;;5.10;;
60233;SDS011;49514;43.538;-5.708;2023-04-25T23:53:25;9.85;;;5.00;;
60233;SDS011;49514;43.538;-5.708;2023-04-25T23:55:52;12.52;;;5.50;;
60233;SDS011;49514;43.538;-5.708;2023-04-25T23:58:19;9.63;;;5.00;;
